createdAt,value
2022-12-31T00:01:42.408Z,6.49
2022-12-31T00:05:12.598Z,6.54
2022-12-31T00:08:39.594Z,6.60
2022-12-31T00:12:07.226Z,6.65
2022-12-31T00:15:34.224Z,6.67
2022-12-31T00:19:02.065Z,6.69
2022-12-31T00:22:29.052Z,6.71
2022-12-31T00:25:55.969Z,6.73
2022-12-31T00:29:23.086Z,6.76
2022-12-31T00:32:49.991Z,6.80
2022-12-31T00:36:18.707Z,6.84
2022-12-31T00:39:45.666Z,6.89
2022-12-31T00:43:12.619Z,6.95
2022-12-31T00:50:05.906Z,7.08
2022-12-31T00:53:33.208Z,7.14
2022-12-31T00:57:00.103Z,7.22
2022-12-31T01:00:27.234Z,7.29
2022-12-31T01:03:56.694Z,7.37
2022-12-31T01:07:23.648Z,7.45
2022-12-31T01:11:10.603Z,7.52
2022-12-31T01:14:37.456Z,7.60
2022-12-31T01:18:04.735Z,7.67
2022-12-31T01:21:33.241Z,7.73
2022-12-31T01:25:00.155Z,7.79
2022-12-31T01:28:27.126Z,7.84
2022-12-31T01:31:54.029Z,7.87
2022-12-31T01:35:21.842Z,7.89
2022-12-31T01:38:48.836Z,7.91
2022-12-31T01:42:15.981Z,7.94
2022-12-31T01:45:44.838Z,7.94
2022-12-31T01:49:21.081Z,7.94
2022-12-31T01:52:51.801Z,7.92
2022-12-31T01:56:21.082Z,7.89
2022-12-31T01:59:48.862Z,7.87
2022-12-31T02:03:17.105Z,7.84
2022-12-31T02:06:48.160Z,7.80
2022-12-31T02:10:15.062Z,7.77
2022-12-31T02:13:42.052Z,7.73
2022-12-31T02:17:18.082Z,7.69
2022-12-31T02:21:06.264Z,7.64
2022-12-31T02:24:51.444Z,7.58
2022-12-31T02:28:31.057Z,7.55
2022-12-31T02:32:02.041Z,7.55
2022-12-31T02:35:34.170Z,7.54
2022-12-31T02:39:02.125Z,7.55
2022-12-31T02:42:29.344Z,7.58
2022-12-31T02:46:02.822Z,7.59
2022-12-31T02:49:40.577Z,7.60
2022-12-31T02:53:22.180Z,7.60
2022-12-31T02:56:58.572Z,7.62
2022-12-31T03:00:44.071Z,7.63
2022-12-31T03:04:29.728Z,7.66
2022-12-31T03:07:56.615Z,7.68
2022-12-31T03:11:37.517Z,7.69
2022-12-31T03:15:06.656Z,7.69
2022-12-31T03:18:58.127Z,7.70
2022-12-31T03:22:31.596Z,7.71
2022-12-31T03:25:59.815Z,7.72
2022-12-31T03:29:26.794Z,7.75
2022-12-31T03:32:56.240Z,7.76
2022-12-31T03:36:23.202Z,7.78
2022-12-31T03:39:50.129Z,7.79
2022-12-31T03:43:17.033Z,7.81
2022-12-31T03:46:43.846Z,7.83
2022-12-31T03:50:12.672Z,7.85
2022-12-31T03:53:39.540Z,7.88
2022-12-31T03:57:06.396Z,7.89
2022-12-31T04:00:33.768Z,7.90
2022-12-31T04:04:00.654Z,7.89
2022-12-31T04:07:27.649Z,7.88
2022-12-31T04:10:54.618Z,7.84
2022-12-31T04:14:21.881Z,7.80
2022-12-31T04:17:50.314Z,7.77
2022-12-31T04:21:17.255Z,7.75
2022-12-31T04:24:44.636Z,7.73
2022-12-31T04:28:11.497Z,7.72
2022-12-31T04:31:38.944Z,7.72
2022-12-31T04:35:06.473Z,7.70
2022-12-31T04:38:34.118Z,7.67
2022-12-31T04:42:00.891Z,7.62
2022-12-31T04:45:27.856Z,7.57
2022-12-31T04:48:55.126Z,7.55
2022-12-31T04:52:22.177Z,7.57
2022-12-31T04:55:49.699Z,7.61
2022-12-31T04:59:16.652Z,7.62
2022-12-31T05:02:43.819Z,7.66
2022-12-31T05:06:13.083Z,7.70
2022-12-31T05:09:39.920Z,7.74
2022-12-31T05:13:06.795Z,7.75
2022-12-31T05:16:33.652Z,7.76
2022-12-31T05:20:00.582Z,7.77
2022-12-31T05:23:28.736Z,7.77
2022-12-31T05:26:55.828Z,7.79
2022-12-31T05:30:23.328Z,7.78
2022-12-31T05:33:50.152Z,7.77
2022-12-31T05:37:17.007Z,7.76
2022-12-31T05:40:44.020Z,7.77
2022-12-31T05:44:11.284Z,7.77
2022-12-31T05:47:38.218Z,7.77
2022-12-31T05:51:05.565Z,7.75
2022-12-31T05:54:32.392Z,7.74
2022-12-31T05:57:59.281Z,7.74
2022-12-31T06:01:26.575Z,7.74
2022-12-31T06:04:53.577Z,7.76
2022-12-31T06:08:20.533Z,7.78
2022-12-31T06:11:48.303Z,7.76
2022-12-31T06:15:15.337Z,7.76
2022-12-31T06:18:42.515Z,7.76
2022-12-31T06:22:09.567Z,7.75
2022-12-31T06:25:37.527Z,7.75
2022-12-31T06:29:04.363Z,7.77
2022-12-31T06:32:31.255Z,7.80
2022-12-31T06:36:00.152Z,7.84
2022-12-31T06:39:27.644Z,7.89
2022-12-31T06:42:59.662Z,7.93
2022-12-31T06:46:27.476Z,7.97
2022-12-31T06:49:54.495Z,8.00
2022-12-31T06:53:21.468Z,8.04
2022-12-31T06:56:49.690Z,8.07
2022-12-31T07:00:19.144Z,8.10
2022-12-31T07:03:53.612Z,8.13
2022-12-31T07:07:27.619Z,8.12
2022-12-31T07:11:01.712Z,8.12
2022-12-31T07:14:42.381Z,8.12
2022-12-31T07:18:19.172Z,8.12
2022-12-31T07:21:47.507Z,8.15
2022-12-31T07:25:19.491Z,8.19
2022-12-31T07:29:02.035Z,8.26
2022-12-31T07:32:51.044Z,8.35
2022-12-31T07:36:28.058Z,8.44
2022-12-31T07:40:04.799Z,8.52
2022-12-31T07:43:37.542Z,8.59
2022-12-31T07:47:15.205Z,8.67
2022-12-31T07:50:43.336Z,8.74
2022-12-31T07:54:13.896Z,8.81
2022-12-31T07:57:50.074Z,8.86
2022-12-31T08:01:28.871Z,8.92
2022-12-31T08:05:07.646Z,8.95
2022-12-31T08:08:40.742Z,8.94
2022-12-31T08:12:09.279Z,8.91
2022-12-31T08:15:38.352Z,8.86
2022-12-31T08:19:06.863Z,8.83
2022-12-31T08:22:46.465Z,8.83
2022-12-31T08:26:24.674Z,8.86
2022-12-31T08:30:02.800Z,8.93
2022-12-31T08:33:36.627Z,9.04
2022-12-31T08:37:09.942Z,9.19
2022-12-31T08:40:48.779Z,9.39
2022-12-31T08:44:27.381Z,9.59
2022-12-31T08:48:02.761Z,9.76
2022-12-31T08:51:30.954Z,9.89
2022-12-31T08:54:59.074Z,10.03
2022-12-31T08:58:40.908Z,10.19
2022-12-31T09:02:27.809Z,10.32
2022-12-31T09:06:03.774Z,10.45
2022-12-31T09:09:43.334Z,10.55
2022-12-31T09:13:19.095Z,10.64
2022-12-31T09:16:58.854Z,10.70
2022-12-31T09:20:36.351Z,10.72
2022-12-31T09:24:12.025Z,10.77
2022-12-31T09:27:47.384Z,10.84
2022-12-31T09:31:18.558Z,10.91
2022-12-31T09:34:54.765Z,10.93
2022-12-31T09:38:31.508Z,10.96
2022-12-31T09:42:28.271Z,11.02
2022-12-31T09:46:26.866Z,11.10
2022-12-31T09:50:18.125Z,11.18
2022-12-31T09:54:18.441Z,11.28
2022-12-31T09:57:56.638Z,11.42
2022-12-31T10:01:43.805Z,11.56
2022-12-31T10:05:39.902Z,11.69
2022-12-31T10:09:28.335Z,11.77
2022-12-31T10:13:20.182Z,11.82
2022-12-31T10:17:22.073Z,11.89
2022-12-31T10:21:07.398Z,11.93
2022-12-31T10:25:00.415Z,12.00
2022-12-31T10:28:38.807Z,12.11
2022-12-31T10:32:19.305Z,12.24
2022-12-31T10:35:54.869Z,12.40
2022-12-31T10:39:33.403Z,12.57
2022-12-31T10:43:20.826Z,12.79
2022-12-31T10:47:18.156Z,13.03
2022-12-31T10:51:29.570Z,13.24
2022-12-31T10:55:32.656Z,13.43
2022-12-31T10:59:39.899Z,13.63
2022-12-31T11:03:52.843Z,13.81
2022-12-31T11:07:54.647Z,13.92
2022-12-31T11:11:30.931Z,14.01
2022-12-31T11:15:18.808Z,14.06
2022-12-31T11:18:56.392Z,14.07
2022-12-31T11:22:35.775Z,14.06
2022-12-31T11:26:17.585Z,14.06
2022-12-31T11:30:01.059Z,14.13
2022-12-31T11:33:50.248Z,14.23
2022-12-31T11:37:33.031Z,14.30
2022-12-31T11:41:06.783Z,14.35
2022-12-31T11:44:41.199Z,14.39
2022-12-31T11:48:30.138Z,14.42
2022-12-31T11:52:28.701Z,14.41
2022-12-31T11:56:07.579Z,14.37
2022-12-31T11:59:34.479Z,14.34
2022-12-31T12:03:05.018Z,14.33
2022-12-31T12:06:35.168Z,14.36
2022-12-31T12:10:17.912Z,14.39
2022-12-31T12:13:44.751Z,14.46
2022-12-31T12:17:16.410Z,14.57
2022-12-31T12:20:45.667Z,14.73
2022-12-31T12:24:22.505Z,14.90
2022-12-31T12:27:49.722Z,15.07
2022-12-31T12:31:27.006Z,15.20
2022-12-31T12:34:54.566Z,15.27
2022-12-31T12:38:23.734Z,15.33
2022-12-31T12:42:03.730Z,15.36
2022-12-31T12:45:40.918Z,15.36
2022-12-31T12:49:09.020Z,15.34
2022-12-31T12:52:59.677Z,15.32
2022-12-31T12:56:37.773Z,15.31
2022-12-31T13:00:19.304Z,15.31
2022-12-31T13:04:33.392Z,15.29
2022-12-31T13:08:02.426Z,15.26
2022-12-31T13:11:40.296Z,15.23
2022-12-31T13:15:17.917Z,15.21
2022-12-31T13:18:54.629Z,15.18
2022-12-31T13:22:31.284Z,15.17
2022-12-31T13:26:11.560Z,15.13
2022-12-31T13:29:41.014Z,15.09
2022-12-31T13:33:15.874Z,15.06
2022-12-31T13:36:47.102Z,15.03
2022-12-31T13:40:25.147Z,15.01
2022-12-31T13:43:59.872Z,14.99
2022-12-31T13:47:33.986Z,14.95
2022-12-31T13:51:06.736Z,14.92
2022-12-31T13:54:42.294Z,14.89
2022-12-31T13:58:20.757Z,14.84
2022-12-31T14:01:53.716Z,14.80
2022-12-31T14:05:30.245Z,14.76
2022-12-31T14:08:57.541Z,14.73
2022-12-31T14:12:37.175Z,14.68
2022-12-31T14:16:07.407Z,14.62
2022-12-31T14:19:55.525Z,14.56
2022-12-31T14:23:41.355Z,14.53
2022-12-31T14:27:14.654Z,14.51
2022-12-31T14:30:44.484Z,14.51
2022-12-31T14:34:23.130Z,14.55
2022-12-31T14:37:56.304Z,14.58
2022-12-31T14:41:37.081Z,14.61
2022-12-31T14:45:22.055Z,14.64
2022-12-31T14:49:00.603Z,14.66
2022-12-31T14:52:33.878Z,14.68
2022-12-31T14:56:03.061Z,14.70
2022-12-31T14:59:37.251Z,14.74
2022-12-31T15:03:23.474Z,14.77
2022-12-31T15:07:00.319Z,14.79
2022-12-31T15:10:38.300Z,14.78
2022-12-31T15:14:28.231Z,14.74
2022-12-31T15:18:10.837Z,14.69
2022-12-31T15:21:47.911Z,14.63
2022-12-31T15:25:31.704Z,14.59
2022-12-31T15:29:06.102Z,14.56
2022-12-31T15:32:40.311Z,14.54
2022-12-31T15:36:20.077Z,14.48
2022-12-31T15:39:47.013Z,14.44
2022-12-31T15:43:21.880Z,14.42
2022-12-31T15:46:52.673Z,14.41
2022-12-31T15:50:23.869Z,14.43
2022-12-31T15:53:54.907Z,14.45
2022-12-31T15:57:27.419Z,14.45
2022-12-31T16:01:03.139Z,14.48
2022-12-31T16:04:33.483Z,14.52
2022-12-31T16:08:01.928Z,14.56
2022-12-31T16:11:30.643Z,14.56
2022-12-31T16:15:00.161Z,14.53
2022-12-31T16:18:37.135Z,14.49
2022-12-31T16:22:10.322Z,14.45
2022-12-31T16:25:38.262Z,14.41
2022-12-31T16:29:05.921Z,14.38
2022-12-31T16:32:39.126Z,14.34
2022-12-31T16:36:06.621Z,14.30
2022-12-31T16:39:35.577Z,14.27
2022-12-31T16:43:02.651Z,14.23
2022-12-31T16:46:33.351Z,14.19
2022-12-31T16:50:04.058Z,14.17
2022-12-31T16:53:36.348Z,14.16
2022-12-31T16:57:05.574Z,14.12
2022-12-31T17:00:33.142Z,14.10
2022-12-31T17:04:04.364Z,14.07
2022-12-31T17:07:41.802Z,14.05
2022-12-31T17:11:23.181Z,14.02
2022-12-31T17:14:52.816Z,13.99
2022-12-31T17:18:23.215Z,13.95
2022-12-31T17:21:51.016Z,13.92
2022-12-31T17:25:25.877Z,13.87
2022-12-31T17:28:55.280Z,13.83
2022-12-31T17:32:37.705Z,13.78
2022-12-31T17:36:25.133Z,13.72
2022-12-31T17:39:54.024Z,13.69
2022-12-31T17:43:22.698Z,13.68
2022-12-31T17:46:58.009Z,13.67
2022-12-31T17:50:29.102Z,13.65
2022-12-31T17:53:56.012Z,13.63
2022-12-31T17:57:28.107Z,13.61
2022-12-31T18:00:55.659Z,13.58
2022-12-31T18:04:22.549Z,13.54
2022-12-31T18:07:50.207Z,13.50
2022-12-31T18:11:21.167Z,13.47
2022-12-31T18:14:48.472Z,13.42
2022-12-31T18:18:25.344Z,13.39
2022-12-31T18:21:52.976Z,13.39
2022-12-31T18:25:23.108Z,13.42
2022-12-31T18:28:50.978Z,13.45
2022-12-31T18:32:23.945Z,13.48
2022-12-31T18:36:08.676Z,13.51
2022-12-31T18:39:36.781Z,13.52
2022-12-31T18:43:05.287Z,13.55
2022-12-31T18:46:32.349Z,13.60
2022-12-31T18:49:59.259Z,13.65
2022-12-31T18:53:26.715Z,13.69
2022-12-31T18:56:57.061Z,13.74
2022-12-31T19:00:25.440Z,13.80
2022-12-31T19:03:52.498Z,13.83
2022-12-31T19:07:20.307Z,13.87
2022-12-31T19:10:47.619Z,13.90
2022-12-31T19:14:21.718Z,13.92
2022-12-31T19:17:48.604Z,13.92
2022-12-31T19:21:20.388Z,13.90
2022-12-31T19:24:47.547Z,13.88
2022-12-31T19:28:18.483Z,13.87
2022-12-31T19:31:45.594Z,13.85
2022-12-31T19:35:14.702Z,13.83
2022-12-31T19:38:41.519Z,13.80
2022-12-31T19:42:10.305Z,13.79
2022-12-31T19:45:37.227Z,13.77
2022-12-31T19:49:04.287Z,13.75
2022-12-31T19:52:31.461Z,13.73
2022-12-31T19:55:58.412Z,13.73
2022-12-31T19:59:25.252Z,13.76
2022-12-31T20:02:52.336Z,13.79
2022-12-31T20:06:20.781Z,13.83
2022-12-31T20:09:47.663Z,13.86
2022-12-31T20:13:14.565Z,13.90
2022-12-31T20:16:41.569Z,13.92
2022-12-31T20:20:09.942Z,13.91
2022-12-31T20:23:37.304Z,13.90
2022-12-31T20:27:04.233Z,13.90
2022-12-31T20:30:31.366Z,13.89
2022-12-31T20:33:58.743Z,13.87
2022-12-31T20:37:25.603Z,13.85
2022-12-31T20:40:52.600Z,13.83
2022-12-31T20:44:19.679Z,13.83
2022-12-31T20:47:46.542Z,13.81
2022-12-31T20:51:14.704Z,13.80
2022-12-31T20:54:41.849Z,13.78
2022-12-31T20:58:08.747Z,13.77
2022-12-31T21:01:55.486Z,13.75
2022-12-31T21:05:22.645Z,13.71
2022-12-31T21:08:50.194Z,13.71
2022-12-31T21:12:35.141Z,13.70
2022-12-31T21:16:02.087Z,13.72
2022-12-31T21:19:29.127Z,13.73
2022-12-31T21:22:55.997Z,13.73
2022-12-31T21:26:22.939Z,13.72
2022-12-31T21:30:17.127Z,13.70
2022-12-31T21:33:37.162Z,13.68
2022-12-31T21:37:03.988Z,13.66
2022-12-31T21:40:31.946Z,13.62
2022-12-31T21:43:59.056Z,13.59
2022-12-31T21:47:47.669Z,13.57
2022-12-31T21:51:17.179Z,13.54
2022-12-31T21:55:01.769Z,13.53
2022-12-31T21:58:28.837Z,13.50
2022-12-31T22:02:13.517Z,13.46
2022-12-31T22:05:46.118Z,13.42
2022-12-31T22:09:12.993Z,13.41
2022-12-31T22:12:40.102Z,13.38
2022-12-31T22:16:09.102Z,13.36
2022-12-31T22:19:54.490Z,13.37
2022-12-31T22:23:23.068Z,13.39
2022-12-31T22:26:50.948Z,13.40
2022-12-31T22:30:18.557Z,13.41
2022-12-31T22:33:45.911Z,13.43
2022-12-31T22:37:35.813Z,13.49
2022-12-31T22:41:11.151Z,13.53
2022-12-31T22:44:38.036Z,13.58
2022-12-31T22:48:05.245Z,13.59
2022-12-31T22:51:57.536Z,13.62
2022-12-31T22:55:21.013Z,13.65
2022-12-31T22:58:48.306Z,13.68
2022-12-31T23:02:16.439Z,13.71
2022-12-31T23:05:43.552Z,13.76
2022-12-31T23:09:28.626Z,13.79
2022-12-31T23:12:55.462Z,13.82
2022-12-31T23:16:40.656Z,13.86
2022-12-31T23:20:30.750Z,13.88
2022-12-31T23:23:57.798Z,13.90
2022-12-31T23:27:24.984Z,13.93
2022-12-31T23:30:53.129Z,13.96
2022-12-31T23:34:20.487Z,13.97
2022-12-31T23:37:47.388Z,13.98
2022-12-31T23:41:20.633Z,13.98
2022-12-31T23:44:47.752Z,13.95
2022-12-31T23:48:14.800Z,13.94
2022-12-31T23:51:42.471Z,13.90
2022-12-31T23:55:10.567Z,13.86
2022-12-31T23:58:37.810Z,13.82
